createdAt,value
2019-03-30T00:03:44.400Z,99.90
2019-03-30T00:13:51.164Z,99.90
2019-03-30T00:23:56.967Z,99.90
2019-03-30T00:34:02.514Z,99.90
2019-03-30T00:44:09.275Z,99.90
2019-03-30T00:54:14.923Z,99.90
2019-03-30T01:04:20.540Z,99.90
2019-03-30T01:14:26.242Z,99.90
2019-03-30T01:24:31.884Z,99.90
2019-03-30T01:34:37.548Z,99.90
2019-03-30T01:44:43.209Z,99.90
2019-03-30T01:54:48.925Z,99.90
2019-03-30T02:04:54.720Z,99.90
2019-03-30T02:15:00.402Z,99.90
2019-03-30T02:25:08.156Z,99.90
2019-03-30T02:35:13.701Z,99.90
2019-03-30T02:45:19.344Z,99.90
2019-03-30T02:55:24.918Z,99.90
2019-03-30T03:05:30.677Z,99.90
2019-03-30T03:15:36.341Z,99.90
2019-03-30T03:25:41.962Z,99.90
2019-03-30T03:35:47.717Z,99.90
2019-03-30T03:45:53.317Z,99.90
2019-03-30T03:56:01.669Z,99.90
2019-03-30T04:06:08.775Z,99.90
2019-03-30T04:16:14.400Z,99.90
2019-03-30T04:26:20.004Z,99.90
2019-03-30T04:36:25.536Z,99.90
2019-03-30T04:46:31.124Z,99.90
2019-03-30T04:56:36.747Z,99.90
2019-03-30T05:06:42.318Z,99.90
2019-03-30T05:16:47.965Z,99.90
2019-03-30T05:26:53.591Z,99.90
2019-03-30T05:36:59.117Z,99.90
2019-03-30T05:47:04.780Z,99.90
2019-03-30T05:57:10.322Z,99.90
2019-03-30T06:07:23.534Z,99.90
2019-03-30T06:27:54.431Z,99.90
2019-03-30T06:38:00.079Z,99.90
2019-03-30T06:48:11.674Z,99.90
2019-03-30T06:58:17.206Z,99.90
2019-03-30T07:08:23.572Z,99.90
2019-03-30T07:18:29.596Z,99.90
2019-03-30T07:28:35.237Z,99.40
2019-03-30T07:38:42.915Z,98.80
2019-03-30T07:48:48.563Z,97.80
2019-03-30T07:58:54.946Z,97.90
2019-03-30T08:09:15.277Z,97.00
2019-03-30T08:19:22.760Z,97.00
2019-03-30T08:29:28.387Z,95.30
2019-03-30T08:39:33.986Z,94.90
2019-03-30T08:49:39.641Z,92.60
2019-03-30T08:59:45.986Z,92.00
2019-03-30T09:09:52.295Z,91.30
2019-03-30T09:20:06.552Z,90.90
2019-03-30T09:30:14.360Z,90.00
2019-03-30T09:40:20.689Z,86.90
2019-03-30T09:50:26.226Z,87.30
2019-03-30T10:00:31.711Z,85.40
2019-03-30T10:10:37.271Z,83.60
2019-03-30T10:20:42.859Z,79.30
2019-03-30T10:30:48.513Z,79.20
2019-03-30T10:40:55.350Z,90.20
2019-03-30T10:51:00.999Z,86.20
2019-03-30T11:01:06.621Z,86.40
2019-03-30T11:11:12.221Z,73.90
2019-03-30T11:21:17.752Z,70.80
2019-03-30T11:31:23.417Z,66.60
2019-03-30T11:41:29.905Z,66.50
2019-03-30T11:51:35.594Z,65.30
2019-03-30T12:01:41.263Z,64.20
2019-03-30T12:11:49.997Z,61.80
2019-03-30T12:21:57.036Z,55.80
2019-03-30T12:32:02.623Z,55.70
2019-03-30T12:42:08.243Z,53.50
2019-03-30T12:52:13.877Z,51.30
2019-03-30T13:02:19.549Z,31.00
2019-03-30T13:12:25.161Z,32.00
2019-03-30T13:22:30.776Z,31.80
2019-03-30T13:32:36.304Z,35.40
2019-03-30T13:42:41.824Z,29.40
2019-03-30T13:52:47.461Z,29.00
2019-03-30T14:02:53.080Z,28.00
2019-03-30T14:12:58.691Z,28.80
2019-03-30T14:23:04.396Z,32.50
2019-03-30T14:33:09.921Z,29.40
2019-03-30T14:43:21.967Z,32.60
2019-03-30T14:53:27.602Z,28.30
2019-03-30T15:03:37.407Z,27.90
2019-03-30T15:13:42.904Z,30.30
2019-03-30T15:23:48.516Z,29.10
2019-03-30T15:33:54.160Z,31.60
2019-03-30T15:44:13.701Z,27.00
2019-03-30T15:54:21.862Z,27.00
2019-03-30T16:04:31.753Z,27.60
2019-03-30T16:14:37.294Z,28.60
2019-03-30T16:24:42.816Z,28.30
2019-03-30T16:34:48.310Z,27.90
2019-03-30T17:06:41.193Z,33.90
2019-03-30T17:17:20.699Z,39.00
2019-03-30T17:27:28.387Z,43.60
2019-03-30T17:37:45.180Z,57.60
2019-03-30T17:48:01.488Z,62.30
2019-03-30T17:58:13.386Z,53.20
2019-03-30T18:08:14.783Z,54.80
2019-03-30T18:18:20.875Z,55.90
2019-03-30T18:28:27.677Z,52.80
2019-03-30T18:38:36.612Z,51.10
2019-03-30T18:48:42.510Z,52.50
2019-03-30T18:58:48.742Z,54.10
2019-03-30T19:08:54.819Z,53.50
2019-03-30T19:19:00.742Z,54.90
2019-03-30T19:29:06.744Z,56.70
2019-03-30T19:39:13.000Z,59.20
2019-03-30T19:49:19.017Z,61.80
2019-03-30T19:59:25.353Z,63.20
2019-03-30T20:09:31.526Z,63.20
2019-03-30T20:19:37.568Z,65.00
2019-03-30T20:29:45.579Z,67.00
2019-03-30T20:39:51.595Z,66.40
2019-03-30T20:49:57.675Z,67.10
2019-03-30T21:00:04.120Z,69.10
2019-03-30T21:10:11.421Z,70.50
2019-03-30T21:20:17.420Z,71.70
2019-03-30T21:30:23.559Z,72.10
2019-03-30T21:40:29.444Z,71.90
2019-03-30T21:50:35.138Z,71.50
2019-03-30T22:00:41.728Z,72.60
2019-03-30T22:10:47.405Z,74.50
2019-03-30T22:20:52.909Z,76.50
2019-03-30T22:30:58.431Z,78.70
2019-03-30T22:41:04.042Z,82.00
2019-03-30T22:51:09.620Z,83.30
2019-03-30T23:01:16.835Z,83.60
2019-03-30T23:11:24.025Z,85.20
2019-03-30T23:21:29.645Z,85.20
2019-03-30T23:31:35.239Z,85.70
2019-03-30T23:41:40.808Z,86.90
2019-03-30T23:51:46.381Z,88.60
